createdAt,value
2023-03-06T00:00:25.498Z,3.50
2023-03-06T00:02:53.131Z,3.50
2023-03-06T00:05:20.477Z,3.40
2023-03-06T00:07:47.409Z,3.40
2023-03-06T00:10:22.822Z,3.30
2023-03-06T00:12:56.796Z,3.40
2023-03-06T00:15:24.730Z,3.30
2023-03-06T00:17:51.832Z,3.30
2023-03-06T00:20:19.431Z,3.30
2023-03-06T00:22:46.889Z,3.30
2023-03-06T00:25:17.149Z,3.30
2023-03-06T00:27:44.152Z,3.30
2023-03-06T00:30:13.589Z,3.30
2023-03-06T00:32:40.658Z,3.30
2023-03-06T00:35:07.830Z,3.20
2023-03-06T00:37:34.619Z,3.10
2023-03-06T00:40:01.788Z,3.10
2023-03-06T00:42:28.490Z,3.20
2023-03-06T00:44:55.146Z,3.20
2023-03-06T00:47:21.999Z,3.20
2023-03-06T00:49:49.732Z,3.20
2023-03-06T00:52:16.422Z,3.10
2023-03-06T00:54:43.364Z,3.00
2023-03-06T00:57:10.315Z,3.00
2023-03-06T00:59:37.023Z,3.10
2023-03-06T01:02:04.091Z,3.10
2023-03-06T01:04:31.204Z,3.20
2023-03-06T01:06:58.029Z,3.00
2023-03-06T01:09:24.933Z,3.00
2023-03-06T01:11:51.617Z,3.00
2023-03-06T01:14:19.455Z,3.10
2023-03-06T01:16:48.161Z,3.10
2023-03-06T01:19:15.493Z,3.10
2023-03-06T01:21:42.158Z,3.20
2023-03-06T01:24:09.050Z,3.20
2023-03-06T01:26:35.721Z,3.20
2023-03-06T01:29:02.979Z,3.10
2023-03-06T01:31:29.826Z,3.00
2023-03-06T01:33:56.887Z,3.00
2023-03-06T01:36:23.626Z,2.90
2023-03-06T01:38:50.347Z,2.90
2023-03-06T01:41:17.866Z,3.00
2023-03-06T01:43:46.224Z,3.00
2023-03-06T01:46:33.808Z,3.00
2023-03-06T01:49:12.867Z,3.00
2023-03-06T01:52:02.326Z,3.10
2023-03-06T01:54:33.264Z,3.10
2023-03-06T01:57:07.237Z,3.10
2023-03-06T01:59:37.349Z,3.10
2023-03-06T02:02:05.843Z,3.10
2023-03-06T02:04:33.295Z,3.10
2023-03-06T02:07:04.737Z,3.20
2023-03-06T02:09:33.684Z,3.20
2023-03-06T02:12:08.023Z,3.10
2023-03-06T02:14:35.063Z,3.10
2023-03-06T02:17:02.682Z,3.10
2023-03-06T02:19:42.845Z,3.00
2023-03-06T02:22:10.218Z,3.10
2023-03-06T02:25:01.872Z,3.10
2023-03-06T02:27:28.993Z,3.10
2023-03-06T02:29:55.729Z,3.10
2023-03-06T02:32:22.534Z,3.10
2023-03-06T02:34:55.968Z,3.10
2023-03-06T02:37:24.306Z,3.10
2023-03-06T02:40:08.448Z,3.10
2023-03-06T02:42:35.774Z,3.00
2023-03-06T02:45:05.339Z,3.10
2023-03-06T02:47:32.168Z,3.10
2023-03-06T02:49:58.907Z,3.10
2023-03-06T02:52:25.767Z,3.00
2023-03-06T02:54:52.427Z,2.80
2023-03-06T02:57:19.470Z,2.70
2023-03-06T02:59:46.191Z,2.60
2023-03-06T03:02:13.013Z,2.40
2023-03-06T03:04:39.761Z,2.40
2023-03-06T03:07:06.601Z,2.50
2023-03-06T03:09:37.059Z,2.60
2023-03-06T03:12:06.737Z,2.60
2023-03-06T03:14:33.547Z,2.50
2023-03-06T03:17:00.811Z,2.40
2023-03-06T03:19:27.646Z,2.30
2023-03-06T03:21:54.325Z,2.30
2023-03-06T03:24:21.078Z,2.50
2023-03-06T03:26:47.876Z,2.70
2023-03-06T03:29:14.571Z,2.70
2023-03-06T03:31:41.798Z,2.70
2023-03-06T03:34:08.953Z,2.60
2023-03-06T03:36:35.681Z,2.40
2023-03-06T03:39:03.421Z,2.40
2023-03-06T03:41:30.546Z,2.50
2023-03-06T03:43:57.263Z,2.60
2023-03-06T03:46:24.036Z,2.60
2023-03-06T03:48:50.991Z,2.60
2023-03-06T03:51:17.830Z,2.50
2023-03-06T03:53:45.089Z,2.50
2023-03-06T03:56:13.209Z,2.50
2023-03-06T03:58:40.160Z,2.30
2023-03-06T04:01:06.910Z,2.30
2023-03-06T04:03:33.988Z,2.50
2023-03-06T04:06:01.272Z,2.60
2023-03-06T04:08:28.229Z,2.70
2023-03-06T04:10:55.019Z,2.50
2023-03-06T04:13:22.470Z,2.60
2023-03-06T04:15:51.477Z,2.60
2023-03-06T04:18:18.772Z,2.70
2023-03-06T04:20:47.376Z,2.80
2023-03-06T04:23:14.799Z,2.80
2023-03-06T04:25:41.775Z,2.90
2023-03-06T04:28:08.827Z,2.90
2023-03-06T04:30:36.793Z,2.90
2023-03-06T04:33:03.787Z,2.90
2023-03-06T04:35:30.600Z,2.90
2023-03-06T04:37:57.377Z,2.80
2023-03-06T04:40:30.477Z,2.80
2023-03-06T04:42:58.978Z,2.80
2023-03-06T04:45:27.421Z,2.80
2023-03-06T04:47:54.509Z,2.90
2023-03-06T04:50:22.454Z,2.80
2023-03-06T04:52:49.195Z,2.80
2023-03-06T04:55:17.997Z,2.90
2023-03-06T04:57:46.543Z,2.90
2023-03-06T05:00:19.283Z,2.70
2023-03-06T05:02:47.012Z,2.60
2023-03-06T05:05:14.103Z,2.70
2023-03-06T05:07:41.384Z,2.70
2023-03-06T05:10:11.447Z,2.40
2023-03-06T05:12:39.459Z,2.50
2023-03-06T05:15:07.593Z,2.60
2023-03-06T05:17:34.679Z,2.70
2023-03-06T05:20:01.338Z,2.80
2023-03-06T05:22:28.014Z,2.90
2023-03-06T05:24:54.691Z,2.90
2023-03-06T05:27:21.384Z,2.90
2023-03-06T05:29:48.288Z,3.00
2023-03-06T05:32:16.910Z,3.00
2023-03-06T05:34:43.757Z,3.00
2023-03-06T05:37:10.458Z,3.00
2023-03-06T05:39:37.324Z,3.00
2023-03-06T05:42:04.398Z,3.00
2023-03-06T05:44:35.668Z,2.90
2023-03-06T05:47:02.619Z,2.90
2023-03-06T05:49:34.438Z,2.90
2023-03-06T05:52:04.073Z,2.90
2023-03-06T05:54:35.382Z,2.90
2023-03-06T05:57:02.647Z,2.90
2023-03-06T05:59:29.446Z,2.90
2023-03-06T06:01:56.282Z,2.90
2023-03-06T06:04:24.988Z,2.90
2023-03-06T06:06:56.350Z,2.90
2023-03-06T06:09:23.523Z,2.90
2023-03-06T06:11:55.482Z,2.90
2023-03-06T06:14:22.544Z,2.90
2023-03-06T06:16:51.702Z,2.90
2023-03-06T06:19:20.195Z,2.90
2023-03-06T06:21:48.551Z,2.90
2023-03-06T06:24:16.928Z,2.80
2023-03-06T06:26:44.083Z,2.80
2023-03-06T06:29:12.222Z,2.90
2023-03-06T06:31:40.198Z,2.90
2023-03-06T06:34:07.850Z,2.80
2023-03-06T06:36:34.781Z,2.80
2023-03-06T06:39:01.575Z,2.70
2023-03-06T06:41:50.752Z,2.70
2023-03-06T06:44:16.224Z,2.70
2023-03-06T06:49:32.719Z,2.80
2023-03-06T06:51:59.458Z,2.80
2023-03-06T06:54:26.328Z,2.90
2023-03-06T06:56:53.168Z,2.90
2023-03-06T06:59:20.247Z,2.90
2023-03-06T07:01:47.299Z,2.70
2023-03-06T07:04:14.748Z,2.70
2023-03-06T07:06:42.454Z,2.80
2023-03-06T07:09:09.469Z,2.80
2023-03-06T07:11:37.744Z,2.80
2023-03-06T07:14:04.783Z,2.90
2023-03-06T07:16:31.713Z,2.90
2023-03-06T07:18:58.399Z,2.90
2023-03-06T07:21:25.095Z,2.90
2023-03-06T07:23:52.152Z,3.00
2023-03-06T07:26:18.827Z,2.90
2023-03-06T07:28:52.383Z,3.10
2023-03-06T07:31:26.161Z,3.10
2023-03-06T07:33:54.103Z,2.90
2023-03-06T07:36:22.628Z,2.80
2023-03-06T07:38:49.415Z,2.90
2023-03-06T07:41:17.171Z,2.80
2023-03-06T07:43:45.661Z,2.90
2023-03-06T07:46:14.237Z,2.90
2023-03-06T07:48:41.997Z,3.00
2023-03-06T07:51:15.159Z,3.00
2023-03-06T07:53:42.317Z,3.10
2023-03-06T07:56:09.543Z,3.10
2023-03-06T07:58:41.982Z,3.10
2023-03-06T08:01:18.454Z,3.10
2023-03-06T08:03:45.309Z,3.10
2023-03-06T08:06:27.124Z,3.10
2023-03-06T08:08:55.719Z,3.10
2023-03-06T08:11:25.173Z,3.10
2023-03-06T08:13:53.196Z,3.20
2023-03-06T08:16:21.612Z,3.30
2023-03-06T08:18:48.502Z,3.20
2023-03-06T08:21:18.639Z,3.20
2023-03-06T08:23:46.665Z,3.20
2023-03-06T08:26:42.774Z,3.30
2023-03-06T08:29:10.847Z,3.30
2023-03-06T08:31:40.558Z,3.30
2023-03-06T08:34:09.855Z,3.20
2023-03-06T08:36:36.649Z,3.30
2023-03-06T08:39:04.772Z,3.20
2023-03-06T08:41:32.180Z,3.20
2023-03-06T08:43:58.956Z,3.30
2023-03-06T08:46:27.500Z,3.30
2023-03-06T08:48:54.214Z,3.30
2023-03-06T08:51:21.751Z,3.30
2023-03-06T08:53:49.926Z,3.30
2023-03-06T08:56:24.056Z,3.30
2023-03-06T08:58:51.124Z,3.20
2023-03-06T09:01:21.023Z,3.20
2023-03-06T09:03:48.220Z,3.20
2023-03-06T09:06:15.440Z,3.20
2023-03-06T09:08:44.090Z,3.20
2023-03-06T09:11:15.388Z,3.30
2023-03-06T09:13:43.348Z,3.40
2023-03-06T09:16:13.569Z,3.40
2023-03-06T09:18:40.648Z,3.50
2023-03-06T09:21:08.974Z,3.40
2023-03-06T09:23:37.140Z,3.30
2023-03-06T09:26:04.007Z,3.30
2023-03-06T09:28:30.721Z,3.40
2023-03-06T09:30:57.449Z,3.50
2023-03-06T09:33:24.363Z,3.50
2023-03-06T09:35:54.510Z,3.50
2023-03-06T09:38:23.812Z,3.60
2023-03-06T09:40:57.444Z,3.70
2023-03-06T09:43:40.241Z,3.60
2023-03-06T09:46:31.169Z,3.70
2023-03-06T09:49:15.179Z,3.90
2023-03-06T09:51:59.768Z,4.00
2023-03-06T09:54:50.438Z,4.00
2023-03-06T09:57:37.817Z,3.90
2023-03-06T10:00:12.229Z,3.90
2023-03-06T10:02:41.818Z,3.90
2023-03-06T10:05:26.147Z,4.10
2023-03-06T10:08:17.046Z,4.10
2023-03-06T10:10:59.402Z,4.30
2023-03-06T10:13:33.315Z,4.30
2023-03-06T10:16:30.560Z,4.40
2023-03-06T10:19:07.214Z,4.40
2023-03-06T10:21:55.685Z,4.40
2023-03-06T10:24:46.287Z,4.20
2023-03-06T10:27:21.742Z,4.20
2023-03-06T10:30:03.359Z,4.30
2023-03-06T10:32:49.847Z,4.40
2023-03-06T10:35:25.630Z,4.50
2023-03-06T10:38:19.340Z,4.50
2023-03-06T10:41:05.760Z,4.40
2023-03-06T10:43:36.017Z,4.50
2023-03-06T10:46:03.786Z,4.70
2023-03-06T10:48:35.395Z,4.60
2023-03-06T10:51:24.528Z,4.60
2023-03-06T10:53:55.906Z,4.50
2023-03-06T10:56:33.979Z,4.10
2023-03-06T10:59:25.451Z,4.20
2023-03-06T11:01:56.521Z,4.30
2023-03-06T11:04:32.676Z,4.30
2023-03-06T11:07:20.955Z,4.30
2023-03-06T11:10:19.533Z,4.40
2023-03-06T11:13:03.005Z,4.40
2023-03-06T11:15:30.731Z,4.40
2023-03-06T11:18:24.622Z,4.30
2023-03-06T11:20:54.263Z,4.30
2023-03-06T11:23:33.025Z,4.40
2023-03-06T11:26:18.072Z,4.40
2023-03-06T11:28:48.011Z,4.30
2023-03-06T11:31:21.804Z,4.30
2023-03-06T11:34:20.941Z,4.30
2023-03-06T11:37:15.264Z,4.30
2023-03-06T11:39:54.794Z,4.30
2023-03-06T11:42:30.352Z,4.40
2023-03-06T11:45:15.462Z,4.50
2023-03-06T11:48:12.739Z,4.60
2023-03-06T11:50:43.502Z,4.70
2023-03-06T11:53:32.374Z,4.80
2023-03-06T12:00:18.721Z,4.70
2023-03-06T12:03:11.171Z,4.50
2023-03-06T12:05:50.933Z,4.40
2023-03-06T12:08:40.585Z,4.30
2023-03-06T12:11:39.423Z,4.30
2023-03-06T12:14:25.737Z,4.20
2023-03-06T12:17:02.593Z,4.30
2023-03-06T12:19:49.757Z,4.30
2023-03-06T12:22:57.407Z,4.50
2023-03-06T12:25:42.377Z,4.50
2023-03-06T12:28:32.078Z,4.60
2023-03-06T12:31:11.165Z,4.70
2023-03-06T12:33:58.333Z,4.70
2023-03-06T12:37:02.804Z,4.60
2023-03-06T12:39:53.205Z,4.70
2023-03-06T12:42:26.564Z,4.90
2023-03-06T12:45:06.666Z,5.10
2023-03-06T12:47:41.158Z,5.10
2023-03-06T12:50:17.338Z,5.30
2023-03-06T12:52:44.409Z,5.40
2023-03-06T12:55:16.862Z,5.50
2023-03-06T12:57:43.783Z,5.50
2023-03-06T13:00:32.552Z,5.50
2023-03-06T13:03:25.988Z,5.40
2023-03-06T13:06:14.581Z,5.60
2023-03-06T13:12:31.177Z,5.60
2023-03-06T13:15:27.407Z,5.50
2023-03-06T13:17:54.198Z,5.50
2023-03-06T13:20:56.680Z,5.80
2023-03-06T13:23:29.549Z,5.80
2023-03-06T13:25:58.281Z,5.80
2023-03-06T13:28:26.477Z,6.20
2023-03-06T13:30:53.427Z,6.70
2023-03-06T13:33:36.278Z,6.90
2023-03-06T13:36:24.806Z,6.70
2023-03-06T13:38:51.826Z,6.80
2023-03-06T13:41:27.326Z,6.80
2023-03-06T13:43:56.627Z,6.50
2023-03-06T13:46:35.529Z,6.30
2023-03-06T13:49:08.328Z,6.10
2023-03-06T13:52:06.974Z,5.90
2023-03-06T13:54:56.570Z,5.80
2023-03-06T13:57:41.224Z,5.60
2023-03-06T14:00:44.015Z,5.50
2023-03-06T14:03:34.981Z,5.50
2023-03-06T14:06:01.781Z,5.60
2023-03-06T14:08:32.042Z,5.60
2023-03-06T14:11:19.168Z,5.70
2023-03-06T14:13:52.611Z,5.80
2023-03-06T14:16:24.887Z,6.00
2023-03-06T14:18:53.509Z,6.00
2023-03-06T14:21:33.599Z,6.00
2023-03-06T14:24:03.397Z,6.20
2023-03-06T14:26:34.113Z,6.20
2023-03-06T14:29:02.416Z,6.10
2023-03-06T14:31:37.287Z,6.20
2023-03-06T14:34:06.461Z,5.90
2023-03-06T14:36:49.692Z,5.90
2023-03-06T14:39:29.637Z,5.90
2023-03-06T14:42:18.488Z,5.90
2023-03-06T14:44:47.538Z,5.80
2023-03-06T14:47:36.777Z,5.80
2023-03-06T14:50:26.613Z,5.70
2023-03-06T14:52:55.501Z,5.70
2023-03-06T14:55:25.416Z,5.80
2023-03-06T14:58:01.057Z,5.70
2023-03-06T15:00:36.457Z,5.60
2023-03-06T15:03:08.438Z,5.60
2023-03-06T15:05:35.567Z,5.60
2023-03-06T15:08:08.247Z,5.70
2023-03-06T15:10:36.515Z,5.70
2023-03-06T15:13:18.538Z,5.70
2023-03-06T15:15:59.342Z,5.60
2023-03-06T15:18:35.250Z,5.50
2023-03-06T15:21:19.926Z,5.40
2023-03-06T15:23:49.546Z,5.40
2023-03-06T15:26:22.069Z,5.40
2023-03-06T15:29:10.242Z,5.50
2023-03-06T15:31:44.913Z,5.50
2023-03-06T15:34:11.516Z,5.40
2023-03-06T15:36:42.392Z,5.40
2023-03-06T15:39:32.492Z,5.40
2023-03-06T15:42:20.293Z,5.50
2023-03-06T15:44:53.207Z,5.40
2023-03-06T15:47:20.947Z,5.50
2023-03-06T15:49:51.865Z,5.40
2023-03-06T15:52:20.216Z,5.40
2023-03-06T15:54:47.011Z,5.30
2023-03-06T15:57:24.039Z,5.30
2023-03-06T15:59:51.309Z,5.30
2023-03-06T16:02:20.652Z,5.20
2023-03-06T16:04:48.583Z,5.30
2023-03-06T16:07:15.279Z,5.30
2023-03-06T16:09:43.112Z,5.40
2023-03-06T16:12:18.580Z,5.40
2023-03-06T16:14:47.750Z,5.40
2023-03-06T16:17:15.423Z,5.40
2023-03-06T16:19:43.063Z,5.40
2023-03-06T16:22:09.844Z,5.40
2023-03-06T16:24:37.262Z,5.30
2023-03-06T16:27:04.716Z,5.30
2023-03-06T16:29:32.141Z,5.00
2023-03-06T16:32:01.632Z,5.00
2023-03-06T16:34:28.781Z,5.10
2023-03-06T16:36:55.573Z,5.20
2023-03-06T16:39:23.785Z,5.20
2023-03-06T16:41:50.744Z,5.20
2023-03-06T16:44:17.522Z,5.20
2023-03-06T16:46:46.192Z,5.00
2023-03-06T16:49:25.476Z,5.10
2023-03-06T16:51:53.158Z,5.20
2023-03-06T16:54:21.858Z,5.10
2023-03-06T16:56:48.529Z,5.00
2023-03-06T16:59:15.317Z,5.00
2023-03-06T17:01:45.301Z,5.00
2023-03-06T17:04:12.565Z,5.00
2023-03-06T17:06:39.818Z,5.10
2023-03-06T17:09:06.693Z,5.00
2023-03-06T17:11:35.236Z,5.00
2023-03-06T17:14:02.072Z,5.00
2023-03-06T17:16:28.777Z,5.00
2023-03-06T17:18:55.458Z,5.00
2023-03-06T17:21:22.313Z,4.90
2023-03-06T17:23:50.838Z,4.90
2023-03-06T17:26:19.172Z,4.90
2023-03-06T17:28:46.709Z,4.90
2023-03-06T17:31:19.547Z,4.90
2023-03-06T17:33:47.177Z,4.80
2023-03-06T17:36:15.664Z,4.80
2023-03-06T17:38:42.628Z,4.80
2023-03-06T17:41:11.046Z,4.80
2023-03-06T17:43:38.862Z,4.80
2023-03-06T17:46:11.121Z,4.80
2023-03-06T17:48:38.924Z,4.70
2023-03-06T17:51:06.326Z,4.70
2023-03-06T17:53:33.293Z,4.70
2023-03-06T17:56:00.041Z,4.70
2023-03-06T17:58:27.283Z,4.70
2023-03-06T18:00:54.325Z,4.70
2023-03-06T18:03:21.259Z,4.70
2023-03-06T18:05:48.317Z,4.70
2023-03-06T18:08:15.036Z,4.70
2023-03-06T18:10:43.336Z,4.70
2023-03-06T18:13:10.517Z,4.70
2023-03-06T18:15:41.251Z,4.70
2023-03-06T18:18:08.905Z,4.70
2023-03-06T18:20:40.990Z,4.70
2023-03-06T18:23:07.962Z,4.70
2023-03-06T18:25:35.133Z,4.70
2023-03-06T18:28:02.038Z,4.70
2023-03-06T18:30:28.807Z,4.70
2023-03-06T18:32:55.617Z,4.70
2023-03-06T18:35:22.596Z,4.60
2023-03-06T18:37:49.321Z,4.60
2023-03-06T18:40:16.198Z,4.60
2023-03-06T18:42:42.909Z,4.60
2023-03-06T18:45:10.748Z,4.60
2023-03-06T18:47:37.377Z,4.60
2023-03-06T18:50:04.369Z,4.50
2023-03-06T18:52:31.046Z,4.40
2023-03-06T18:54:57.755Z,4.40
2023-03-06T18:57:24.443Z,4.40
2023-03-06T18:59:51.135Z,4.50
2023-03-06T19:02:17.806Z,4.50
2023-03-06T19:04:44.679Z,4.50
2023-03-06T19:07:13.360Z,5.40
2023-03-06T19:09:40.099Z,4.50
2023-03-06T19:12:06.984Z,4.50
2023-03-06T19:14:33.764Z,4.40
2023-03-06T19:17:00.444Z,4.50
2023-03-06T19:19:29.318Z,4.50
2023-03-06T19:21:59.654Z,4.50
2023-03-06T19:24:26.589Z,4.50
2023-03-06T19:26:53.424Z,4.40
2023-03-06T19:29:20.233Z,4.40
2023-03-06T19:31:46.924Z,4.40
2023-03-06T19:34:13.588Z,4.50
2023-03-06T19:36:40.926Z,4.40
2023-03-06T19:39:09.482Z,4.30
2023-03-06T19:41:36.555Z,4.30
2023-03-06T19:44:05.824Z,4.30
2023-03-06T19:46:34.105Z,4.30
2023-03-06T19:49:02.690Z,4.30
2023-03-06T19:51:29.987Z,4.30
2023-03-06T19:53:57.734Z,4.30
2023-03-06T19:56:29.175Z,4.30
2023-03-06T19:58:56.543Z,4.40
2023-03-06T20:01:25.558Z,4.30
2023-03-06T20:03:59.844Z,4.30
2023-03-06T20:06:29.137Z,4.30
2023-03-06T20:08:55.823Z,4.30
2023-03-06T20:11:26.097Z,4.20
2023-03-06T20:13:53.774Z,4.20
2023-03-06T20:16:20.459Z,4.20
2023-03-06T20:18:47.150Z,4.20
2023-03-06T20:21:15.243Z,4.20
2023-03-06T20:23:42.850Z,4.10
2023-03-06T20:26:12.193Z,3.90
2023-03-06T20:28:40.654Z,4.00
2023-03-06T20:31:16.884Z,3.90
2023-03-06T20:33:45.070Z,3.90
2023-03-06T20:36:20.102Z,4.00
2023-03-06T20:38:47.316Z,4.00
2023-03-06T20:41:15.479Z,4.00
2023-03-06T20:43:42.766Z,4.00
2023-03-06T20:46:11.201Z,4.00
2023-03-06T20:48:38.871Z,4.00
2023-03-06T20:51:16.081Z,3.80
2023-03-06T20:53:43.017Z,3.80
2023-03-06T20:56:13.992Z,3.80
2023-03-06T20:58:40.695Z,3.90
2023-03-06T21:01:07.543Z,3.90
2023-03-06T21:03:34.352Z,3.90
2023-03-06T21:06:01.095Z,3.80
2023-03-06T21:08:27.897Z,3.80
2023-03-06T21:10:55.024Z,3.80
2023-03-06T21:13:21.780Z,3.90
2023-03-06T21:15:48.544Z,3.90
2023-03-06T21:18:15.264Z,3.90
2023-03-06T21:20:42.338Z,3.80
2023-03-06T21:23:09.289Z,3.80
2023-03-06T21:25:36.124Z,3.80
2023-03-06T21:28:02.839Z,3.80
2023-03-06T21:30:29.921Z,3.80
2023-03-06T21:32:56.788Z,3.70
2023-03-06T21:35:23.493Z,3.70
2023-03-06T21:37:50.408Z,3.80
2023-03-06T21:40:17.207Z,3.80
2023-03-06T21:42:43.898Z,3.90
2023-03-06T21:45:10.970Z,3.90
2023-03-06T21:47:38.829Z,3.90
2023-03-06T21:50:08.006Z,4.00
2023-03-06T21:52:34.854Z,4.00
2023-03-06T21:55:01.526Z,4.00
2023-03-06T21:57:28.274Z,3.90
2023-03-06T21:59:54.958Z,3.80
2023-03-06T22:02:22.221Z,3.60
2023-03-06T22:04:51.114Z,3.60
2023-03-06T22:07:18.374Z,3.60
2023-03-06T22:09:45.537Z,3.60
2023-03-06T22:12:12.441Z,3.60
2023-03-06T22:14:39.184Z,3.70
2023-03-06T22:17:05.984Z,3.80
2023-03-06T22:19:32.930Z,3.80
2023-03-06T22:21:59.667Z,3.70
2023-03-06T22:24:26.421Z,3.80
2023-03-06T22:27:16.189Z,3.80
2023-03-06T22:29:43.321Z,3.70
2023-03-06T22:32:10.011Z,3.80
2023-03-06T22:34:36.785Z,3.90
2023-03-06T22:37:03.514Z,3.80
2023-03-06T22:39:30.787Z,3.80
2023-03-06T22:41:58.072Z,3.80
2023-03-06T22:44:24.811Z,3.90
2023-03-06T22:46:51.806Z,3.80
2023-03-06T22:49:19.003Z,3.80
2023-03-06T22:51:45.674Z,3.70
2023-03-06T22:54:12.452Z,3.70
2023-03-06T22:56:39.124Z,3.70
2023-03-06T22:59:05.862Z,3.70
2023-03-06T23:01:34.060Z,3.70
2023-03-06T23:04:03.322Z,3.80
2023-03-06T23:06:35.782Z,3.80
2023-03-06T23:09:12.108Z,3.80
2023-03-06T23:11:38.903Z,3.70
2023-03-06T23:14:05.952Z,3.70
2023-03-06T23:16:33.462Z,3.70
2023-03-06T23:19:00.205Z,3.70
2023-03-06T23:21:27.040Z,3.60
2023-03-06T23:23:54.744Z,3.60
2023-03-06T23:26:25.064Z,3.60
2023-03-06T23:28:52.661Z,3.70
2023-03-06T23:31:22.802Z,3.70
2023-03-06T23:33:49.944Z,3.70
2023-03-06T23:36:18.755Z,3.60
2023-03-06T23:38:45.765Z,3.50
2023-03-06T23:41:14.597Z,3.60
2023-03-06T23:43:41.772Z,3.50
2023-03-06T23:46:09.203Z,3.50
2023-03-06T23:48:37.932Z,3.50
2023-03-06T23:51:06.581Z,3.50
2023-03-06T23:53:33.383Z,3.50
2023-03-06T23:56:00.192Z,3.50
2023-03-06T23:58:26.934Z,3.50
